sensor_id;sensor_type;location;lat;lon;timestamp;P1;durP1;ratioP1;P2;durP2;ratioP2
52268;SDS011;38224;50.950;4.100;2023-06-14T00:00:21;10.10;;;6.32;;
52268;SDS011;38224;50.950;4.100;2023-06-14T00:02:47;12.73;;;5.88;;
52268;SDS011;38224;50.950;4.100;2023-06-14T00:05:12;9.07;;;5.72;;
52268;SDS011;38224;50.950;4.100;2023-06-14T00:07:38;12.05;;;5.72;;
52268;SDS011;38224;50.950;4.100;2023-06-14T00:10:07;10.30;;;5.55;;
52268;SDS011;38224;50.950;4.100;2023-06-14T00:12:33;19.33;;;5.47;;
52268;SDS011;38224;50.950;4.100;2023-06-14T00:14:58;11.23;;;5.93;;
52268;SDS011;38224;50.950;4.100;2023-06-14T00:17:23;12.60;;;5.82;;
52268;SDS011;38224;50.950;4.100;2023-06-14T00:19:49;10.45;;;6.03;;
52268;SDS011;38224;50.950;4.100;2023-06-14T00:22:15;12.80;;;5.28;;
52268;SDS011;38224;50.950;4.100;2023-06-14T00:24:40;13.57;;;5.82;;
52268;SDS011;38224;50.950;4.100;2023-06-14T00:27:05;10.05;;;5.82;;
52268;SDS011;38224;50.950;4.100;2023-06-14T00:29:31;13.73;;;6.05;;
52268;SDS011;38224;50.950;4.100;2023-06-14T00:31:56;9.53;;;5.43;;
52268;SDS011;38224;50.950;4.100;2023-06-14T00:34:21;8.55;;;5.57;;
52268;SDS011;38224;50.950;4.100;2023-06-14T00:36:47;13.85;;;6.47;;
52268;SDS011;38224;50.950;4.100;2023-06-14T00:39:12;11.02;;;6.10;;
52268;SDS011;38224;50.950;4.100;2023-06-14T00:41:39;13.90;;;6.13;;
52268;SDS011;38224;50.950;4.100;2023-06-14T00:44:04;10.23;;;6.13;;
52268;SDS011;38224;50.950;4.100;2023-06-14T00:46:30;10.77;;;7.15;;
52268;SDS011;38224;50.950;4.100;2023-06-14T00:48:55;12.43;;;7.53;;
52268;SDS011;38224;50.950;4.100;2023-06-14T00:51:21;11.55;;;6.82;;
52268;SDS011;38224;50.950;4.100;2023-06-14T00:53:47;10.30;;;5.97;;
52268;SDS011;38224;50.950;4.100;2023-06-14T00:56:13;11.70;;;6.22;;
52268;SDS011;38224;50.950;4.100;2023-06-14T00:58:39;10.40;;;5.95;;
52268;SDS011;38224;50.950;4.100;2023-06-14T01:01:05;11.68;;;6.25;;
52268;SDS011;38224;50.950;4.100;2023-06-14T01:03:30;13.05;;;6.70;;
52268;SDS011;38224;50.950;4.100;2023-06-14T01:06:04;8.48;;;6.50;;
52268;SDS011;38224;50.950;4.100;2023-06-14T01:11:12;18.92;;;6.90;;
52268;SDS011;38224;50.950;4.100;2023-06-14T01:13:42;9.50;;;6.28;;
52268;SDS011;38224;50.950;4.100;2023-06-14T01:16:08;9.88;;;6.03;;
52268;SDS011;38224;50.950;4.100;2023-06-14T01:18:34;15.38;;;6.72;;
52268;SDS011;38224;50.950;4.100;2023-06-14T01:21:00;12.18;;;6.85;;
52268;SDS011;38224;50.950;4.100;2023-06-14T01:23:30;14.80;;;6.97;;
52268;SDS011;38224;50.950;4.100;2023-06-14T01:25:58;11.15;;;6.22;;
52268;SDS011;38224;50.950;4.100;2023-06-14T01:28:23;14.23;;;6.20;;
52268;SDS011;38224;50.950;4.100;2023-06-14T01:30:52;9.07;;;6.47;;
52268;SDS011;38224;50.950;4.100;2023-06-14T01:33:19;11.32;;;6.55;;
52268;SDS011;38224;50.950;4.100;2023-06-14T01:35:47;12.15;;;6.75;;
52268;SDS011;38224;50.950;4.100;2023-06-14T01:38:13;13.85;;;6.63;;
52268;SDS011;38224;50.950;4.100;2023-06-14T01:40:39;11.85;;;6.68;;
52268;SDS011;38224;50.950;4.100;2023-06-14T01:43:05;12.38;;;6.35;;
52268;SDS011;38224;50.950;4.100;2023-06-14T01:45:31;10.02;;;6.88;;
52268;SDS011;38224;50.950;4.100;2023-06-14T01:47:57;14.52;;;6.45;;
52268;SDS011;38224;50.950;4.100;2023-06-14T01:50:23;15.52;;;6.35;;
52268;SDS011;38224;50.950;4.100;2023-06-14T01:52:48;13.80;;;6.83;;
52268;SDS011;38224;50.950;4.100;2023-06-14T01:55:13;10.27;;;6.47;;
52268;SDS011;38224;50.950;4.100;2023-06-14T01:57:38;11.00;;;6.35;;
52268;SDS011;38224;50.950;4.100;2023-06-14T02:00:04;13.33;;;6.90;;
52268;SDS011;38224;50.950;4.100;2023-06-14T02:02:33;17.80;;;6.70;;
52268;SDS011;38224;50.950;4.100;2023-06-14T02:04:58;10.20;;;6.93;;
52268;SDS011;38224;50.950;4.100;2023-06-14T02:07:23;11.53;;;6.90;;
52268;SDS011;38224;50.950;4.100;2023-06-14T02:09:49;10.02;;;6.38;;
52268;SDS011;38224;50.950;4.100;2023-06-14T02:12:14;16.00;;;6.95;;
52268;SDS011;38224;50.950;4.100;2023-06-14T02:14:39;13.18;;;6.68;;
52268;SDS011;38224;50.950;4.100;2023-06-14T02:17:05;16.17;;;6.95;;
52268;SDS011;38224;50.950;4.100;2023-06-14T02:19:31;10.50;;;6.80;;
52268;SDS011;38224;50.950;4.100;2023-06-14T02:21:56;13.60;;;6.85;;
52268;SDS011;38224;50.950;4.100;2023-06-14T02:24:22;11.30;;;7.40;;
52268;SDS011;38224;50.950;4.100;2023-06-14T02:26:48;9.73;;;6.47;;
52268;SDS011;38224;50.950;4.100;2023-06-14T02:29:13;11.53;;;6.60;;
52268;SDS011;38224;50.950;4.100;2023-06-14T02:31:39;10.82;;;7.30;;
52268;SDS011;38224;50.950;4.100;2023-06-14T02:34:05;12.23;;;7.40;;
52268;SDS011;38224;50.950;4.100;2023-06-14T02:36:30;11.90;;;6.90;;
52268;SDS011;38224;50.950;4.100;2023-06-14T02:38:56;12.82;;;7.57;;
52268;SDS011;38224;50.950;4.100;2023-06-14T02:41:22;12.40;;;7.72;;
52268;SDS011;38224;50.950;4.100;2023-06-14T02:43:48;9.55;;;6.90;;
52268;SDS011;38224;50.950;4.100;2023-06-14T02:46:13;14.23;;;6.83;;
52268;SDS011;38224;50.950;4.100;2023-06-14T02:48:38;15.30;;;6.60;;
52268;SDS011;38224;50.950;4.100;2023-06-14T02:51:03;12.95;;;6.68;;
52268;SDS011;38224;50.950;4.100;2023-06-14T02:53:29;9.77;;;6.18;;
52268;SDS011;38224;50.950;4.100;2023-06-14T02:55:54;15.50;;;7.10;;
52268;SDS011;38224;50.950;4.100;2023-06-14T02:58:20;10.57;;;7.32;;
52268;SDS011;38224;50.950;4.100;2023-06-14T03:00:46;8.95;;;6.88;;
52268;SDS011;38224;50.950;4.100;2023-06-14T03:03:11;11.48;;;7.10;;
52268;SDS011;38224;50.950;4.100;2023-06-14T03:05:43;10.30;;;6.40;;
52268;SDS011;38224;50.950;4.100;2023-06-14T03:08:11;20.75;;;7.53;;
52268;SDS011;38224;50.950;4.100;2023-06-14T03:10:41;12.52;;;7.15;;
52268;SDS011;38224;50.950;4.100;2023-06-14T03:13:08;16.10;;;7.15;;
52268;SDS011;38224;50.950;4.100;2023-06-14T03:15:33;14.77;;;7.03;;
52268;SDS011;38224;50.950;4.100;2023-06-14T03:17:58;13.73;;;7.03;;
52268;SDS011;38224;50.950;4.100;2023-06-14T03:20:24;11.63;;;6.78;;
52268;SDS011;38224;50.950;4.100;2023-06-14T03:22:55;17.05;;;6.90;;
52268;SDS011;38224;50.950;4.100;2023-06-14T03:25:20;12.85;;;6.93;;
52268;SDS011;38224;50.950;4.100;2023-06-14T03:27:46;10.70;;;7.20;;
52268;SDS011;38224;50.950;4.100;2023-06-14T03:30:12;11.35;;;6.30;;
52268;SDS011;38224;50.950;4.100;2023-06-14T03:32:37;12.43;;;6.75;;
52268;SDS011;38224;50.950;4.100;2023-06-14T03:35:03;12.07;;;6.70;;
52268;SDS011;38224;50.950;4.100;2023-06-14T03:37:28;11.18;;;6.72;;
52268;SDS011;38224;50.950;4.100;2023-06-14T03:39:53;9.73;;;7.45;;
52268;SDS011;38224;50.950;4.100;2023-06-14T03:42:19;8.93;;;6.45;;
52268;SDS011;38224;50.950;4.100;2023-06-14T03:44:44;10.37;;;6.37;;
52268;SDS011;38224;50.950;4.100;2023-06-14T03:47:09;9.98;;;6.40;;
52268;SDS011;38224;50.950;4.100;2023-06-14T03:49:35;11.70;;;6.63;;
52268;SDS011;38224;50.950;4.100;2023-06-14T03:52:00;9.73;;;7.27;;
52268;SDS011;38224;50.950;4.100;2023-06-14T03:54:29;10.23;;;6.78;;
52268;SDS011;38224;50.950;4.100;2023-06-14T03:56:54;10.85;;;6.55;;
52268;SDS011;38224;50.950;4.100;2023-06-14T03:59:21;11.30;;;7.55;;
52268;SDS011;38224;50.950;4.100;2023-06-14T04:01:47;14.85;;;6.75;;
52268;SDS011;38224;50.950;4.100;2023-06-14T04:04:12;12.82;;;7.47;;
52268;SDS011;38224;50.950;4.100;2023-06-14T04:06:41;11.02;;;6.63;;
52268;SDS011;38224;50.950;4.100;2023-06-14T04:09:07;13.60;;;7.45;;
52268;SDS011;38224;50.950;4.100;2023-06-14T04:11:33;11.77;;;6.47;;
52268;SDS011;38224;50.950;4.100;2023-06-14T04:13:58;10.30;;;6.32;;
52268;SDS011;38224;50.950;4.100;2023-06-14T04:16:23;7.80;;;5.70;;
52268;SDS011;38224;50.950;4.100;2023-06-14T04:18:49;12.52;;;6.30;;
52268;SDS011;38224;50.950;4.100;2023-06-14T04:21:16;14.13;;;7.25;;
52268;SDS011;38224;50.950;4.100;2023-06-14T04:23:41;10.03;;;6.37;;
52268;SDS011;38224;50.950;4.100;2023-06-14T04:26:09;10.95;;;6.70;;
52268;SDS011;38224;50.950;4.100;2023-06-14T04:28:35;11.30;;;6.43;;
52268;SDS011;38224;50.950;4.100;2023-06-14T04:31:05;11.80;;;6.85;;
52268;SDS011;38224;50.950;4.100;2023-06-14T04:33:34;12.57;;;7.43;;
52268;SDS011;38224;50.950;4.100;2023-06-14T04:36:08;12.68;;;6.82;;
52268;SDS011;38224;50.950;4.100;2023-06-14T04:38:33;10.48;;;6.45;;
52268;SDS011;38224;50.950;4.100;2023-06-14T04:40:59;10.07;;;6.47;;
52268;SDS011;38224;50.950;4.100;2023-06-14T04:43:27;8.68;;;5.82;;
52268;SDS011;38224;50.950;4.100;2023-06-14T04:45:52;11.90;;;6.30;;
52268;SDS011;38224;50.950;4.100;2023-06-14T04:48:19;11.23;;;6.43;;
52268;SDS011;38224;50.950;4.100;2023-06-14T04:50:45;10.30;;;6.30;;
52268;SDS011;38224;50.950;4.100;2023-06-14T04:53:10;12.70;;;5.72;;
52268;SDS011;38224;50.950;4.100;2023-06-14T04:55:36;15.95;;;6.88;;
52268;SDS011;38224;50.950;4.100;2023-06-14T04:58:02;11.15;;;6.57;;
52268;SDS011;38224;50.950;4.100;2023-06-14T05:00:28;13.25;;;7.03;;
52268;SDS011;38224;50.950;4.100;2023-06-14T05:02:55;10.23;;;6.82;;
52268;SDS011;38224;50.950;4.100;2023-06-14T05:05:22;9.60;;;6.88;;
52268;SDS011;38224;50.950;4.100;2023-06-14T05:07:47;13.45;;;6.78;;
52268;SDS011;38224;50.950;4.100;2023-06-14T05:10:12;12.70;;;6.07;;
52268;SDS011;38224;50.950;4.100;2023-06-14T05:12:37;8.27;;;6.35;;
52268;SDS011;38224;50.950;4.100;2023-06-14T05:15:03;9.80;;;6.35;;
52268;SDS011;38224;50.950;4.100;2023-06-14T05:17:29;12.45;;;7.05;;
52268;SDS011;38224;50.950;4.100;2023-06-14T05:19:55;13.43;;;6.67;;
52268;SDS011;38224;50.950;4.100;2023-06-14T05:22:21;12.77;;;6.75;;
52268;SDS011;38224;50.950;4.100;2023-06-14T05:24:46;9.52;;;5.90;;
52268;SDS011;38224;50.950;4.100;2023-06-14T05:27:13;9.60;;;6.68;;
52268;SDS011;38224;50.950;4.100;2023-06-14T05:29:38;11.70;;;6.50;;
52268;SDS011;38224;50.950;4.100;2023-06-14T05:32:04;10.63;;;6.95;;
52268;SDS011;38224;50.950;4.100;2023-06-14T05:34:29;8.73;;;6.60;;
52268;SDS011;38224;50.950;4.100;2023-06-14T05:36:54;11.23;;;6.70;;
52268;SDS011;38224;50.950;4.100;2023-06-14T05:39:20;10.02;;;6.15;;
52268;SDS011;38224;50.950;4.100;2023-06-14T05:41:45;12.27;;;6.77;;
52268;SDS011;38224;50.950;4.100;2023-06-14T05:44:11;13.70;;;6.87;;
52268;SDS011;38224;50.950;4.100;2023-06-14T05:46:36;10.48;;;6.15;;
52268;SDS011;38224;50.950;4.100;2023-06-14T05:49:01;9.45;;;6.40;;
52268;SDS011;38224;50.950;4.100;2023-06-14T05:51:27;13.18;;;6.32;;
52268;SDS011;38224;50.950;4.100;2023-06-14T05:53:52;12.47;;;6.90;;
52268;SDS011;38224;50.950;4.100;2023-06-14T05:56:18;14.25;;;7.25;;
52268;SDS011;38224;50.950;4.100;2023-06-14T05:58:43;18.70;;;7.10;;
52268;SDS011;38224;50.950;4.100;2023-06-14T06:01:09;14.93;;;7.18;;
52268;SDS011;38224;50.950;4.100;2023-06-14T06:03:34;13.52;;;6.93;;
52268;SDS011;38224;50.950;4.100;2023-06-14T06:05:59;10.95;;;7.18;;
52268;SDS011;38224;50.950;4.100;2023-06-14T06:08:26;15.27;;;7.10;;
52268;SDS011;38224;50.950;4.100;2023-06-14T06:10:51;10.23;;;6.57;;
52268;SDS011;38224;50.950;4.100;2023-06-14T06:13:16;11.88;;;6.93;;
52268;SDS011;38224;50.950;4.100;2023-06-14T06:15:42;9.80;;;6.63;;
52268;SDS011;38224;50.950;4.100;2023-06-14T06:18:07;11.13;;;6.63;;
52268;SDS011;38224;50.950;4.100;2023-06-14T06:20:32;11.40;;;6.30;;
52268;SDS011;38224;50.950;4.100;2023-06-14T06:22:58;13.20;;;6.93;;
52268;SDS011;38224;50.950;4.100;2023-06-14T06:25:24;12.07;;;7.00;;
52268;SDS011;38224;50.950;4.100;2023-06-14T06:27:50;12.18;;;6.47;;
52268;SDS011;38224;50.950;4.100;2023-06-14T06:30:16;17.02;;;7.40;;
52268;SDS011;38224;50.950;4.100;2023-06-14T06:32:41;15.50;;;5.75;;
52268;SDS011;38224;50.950;4.100;2023-06-14T06:35:06;9.57;;;6.60;;
52268;SDS011;38224;50.950;4.100;2023-06-14T06:37:33;11.63;;;6.38;;
52268;SDS011;38224;50.950;4.100;2023-06-14T06:39:59;13.80;;;7.20;;
52268;SDS011;38224;50.950;4.100;2023-06-14T06:42:24;11.27;;;6.75;;
52268;SDS011;38224;50.950;4.100;2023-06-14T06:44:49;10.82;;;6.60;;
52268;SDS011;38224;50.950;4.100;2023-06-14T06:47:15;13.63;;;6.37;;
52268;SDS011;38224;50.950;4.100;2023-06-14T06:49:40;13.70;;;6.43;;
52268;SDS011;38224;50.950;4.100;2023-06-14T06:52:06;10.70;;;6.32;;
52268;SDS011;38224;50.950;4.100;2023-06-14T06:54:32;13.90;;;6.95;;
52268;SDS011;38224;50.950;4.100;2023-06-14T06:56:57;9.13;;;6.22;;
52268;SDS011;38224;50.950;4.100;2023-06-14T06:59:23;10.57;;;5.82;;
52268;SDS011;38224;50.950;4.100;2023-06-14T07:01:48;7.47;;;5.75;;
52268;SDS011;38224;50.950;4.100;2023-06-14T07:04:14;9.60;;;5.72;;
52268;SDS011;38224;50.950;4.100;2023-06-14T07:06:39;12.43;;;6.20;;
52268;SDS011;38224;50.950;4.100;2023-06-14T07:09:04;11.83;;;6.40;;
52268;SDS011;38224;50.950;4.100;2023-06-14T07:11:33;10.15;;;5.35;;
52268;SDS011;38224;50.950;4.100;2023-06-14T07:13:58;10.87;;;6.27;;
52268;SDS011;38224;50.950;4.100;2023-06-14T07:16:23;11.70;;;5.80;;
52268;SDS011;38224;50.950;4.100;2023-06-14T07:18:49;10.70;;;5.40;;
52268;SDS011;38224;50.950;4.100;2023-06-14T07:21:14;12.83;;;5.67;;
52268;SDS011;38224;50.950;4.100;2023-06-14T07:23:39;8.07;;;5.18;;
52268;SDS011;38224;50.950;4.100;2023-06-14T07:26:05;10.00;;;5.68;;
52268;SDS011;38224;50.950;4.100;2023-06-14T07:28:30;9.82;;;5.38;;
52268;SDS011;38224;50.950;4.100;2023-06-14T07:30:55;9.77;;;5.77;;
52268;SDS011;38224;50.950;4.100;2023-06-14T07:33:21;9.55;;;5.30;;
52268;SDS011;38224;50.950;4.100;2023-06-14T07:35:46;8.97;;;4.93;;
52268;SDS011;38224;50.950;4.100;2023-06-14T07:38:12;8.85;;;5.03;;
52268;SDS011;38224;50.950;4.100;2023-06-14T07:40:38;9.07;;;5.23;;
52268;SDS011;38224;50.950;4.100;2023-06-14T07:43:03;14.10;;;4.67;;
52268;SDS011;38224;50.950;4.100;2023-06-14T07:45:28;7.30;;;5.00;;
52268;SDS011;38224;50.950;4.100;2023-06-14T07:47:54;6.75;;;5.07;;
52268;SDS011;38224;50.950;4.100;2023-06-14T07:50:20;8.20;;;5.20;;
52268;SDS011;38224;50.950;4.100;2023-06-14T07:52:45;6.90;;;4.32;;
52268;SDS011;38224;50.950;4.100;2023-06-14T07:55:11;5.85;;;4.45;;
52268;SDS011;38224;50.950;4.100;2023-06-14T07:57:37;7.45;;;5.43;;
52268;SDS011;38224;50.950;4.100;2023-06-14T08:00:02;12.82;;;5.15;;
52268;SDS011;38224;50.950;4.100;2023-06-14T08:02:31;7.28;;;4.78;;
52268;SDS011;38224;50.950;4.100;2023-06-14T08:04:56;10.23;;;4.50;;
52268;SDS011;38224;50.950;4.100;2023-06-14T08:07:21;11.10;;;5.22;;
52268;SDS011;38224;50.950;4.100;2023-06-14T08:09:47;7.50;;;4.80;;
52268;SDS011;38224;50.950;4.100;2023-06-14T08:12:12;10.30;;;4.57;;
52268;SDS011;38224;50.950;4.100;2023-06-14T08:14:39;6.47;;;4.97;;
52268;SDS011;38224;50.950;4.100;2023-06-14T08:17:04;8.18;;;4.55;;
52268;SDS011;38224;50.950;4.100;2023-06-14T08:19:29;11.73;;;4.80;;
52268;SDS011;38224;50.950;4.100;2023-06-14T08:21:55;11.77;;;4.90;;
52268;SDS011;38224;50.950;4.100;2023-06-14T08:24:21;8.50;;;4.93;;
52268;SDS011;38224;50.950;4.100;2023-06-14T08:26:49;7.75;;;4.85;;
52268;SDS011;38224;50.950;4.100;2023-06-14T08:29:15;8.38;;;5.00;;
52268;SDS011;38224;50.950;4.100;2023-06-14T08:31:40;8.52;;;5.40;;
52268;SDS011;38224;50.950;4.100;2023-06-14T08:34:05;8.02;;;5.00;;
52268;SDS011;38224;50.950;4.100;2023-06-14T08:36:31;7.30;;;4.30;;
52268;SDS011;38224;50.950;4.100;2023-06-14T08:38:56;7.53;;;4.10;;
52268;SDS011;38224;50.950;4.100;2023-06-14T08:41:21;6.47;;;4.30;;
52268;SDS011;38224;50.950;4.100;2023-06-14T08:43:48;10.02;;;4.38;;
52268;SDS011;38224;50.950;4.100;2023-06-14T08:46:14;9.10;;;4.13;;
52268;SDS011;38224;50.950;4.100;2023-06-14T08:48:44;10.02;;;4.47;;
52268;SDS011;38224;50.950;4.100;2023-06-14T08:51:09;13.30;;;4.57;;
52268;SDS011;38224;50.950;4.100;2023-06-14T08:53:36;12.77;;;4.50;;
52268;SDS011;38224;50.950;4.100;2023-06-14T08:56:07;6.25;;;4.05;;
52268;SDS011;38224;50.950;4.100;2023-06-14T08:58:40;9.20;;;4.13;;
52268;SDS011;38224;50.950;4.100;2023-06-14T09:01:08;6.25;;;4.25;;
52268;SDS011;38224;50.950;4.100;2023-06-14T09:03:34;10.57;;;4.53;;
52268;SDS011;38224;50.950;4.100;2023-06-14T09:05:59;7.13;;;3.90;;
52268;SDS011;38224;50.950;4.100;2023-06-14T09:08:26;7.03;;;4.10;;
52268;SDS011;38224;50.950;4.100;2023-06-14T09:10:52;5.35;;;4.30;;
52268;SDS011;38224;50.950;4.100;2023-06-14T09:13:17;8.50;;;4.40;;
52268;SDS011;38224;50.950;4.100;2023-06-14T09:15:43;8.55;;;4.75;;
52268;SDS011;38224;50.950;4.100;2023-06-14T09:18:08;7.53;;;4.60;;
52268;SDS011;38224;50.950;4.100;2023-06-14T09:20:34;9.27;;;4.63;;
52268;SDS011;38224;50.950;4.100;2023-06-14T09:23:00;9.90;;;4.22;;
52268;SDS011;38224;50.950;4.100;2023-06-14T09:25:25;5.63;;;4.53;;
52268;SDS011;38224;50.950;4.100;2023-06-14T09:27:52;9.85;;;5.03;;
52268;SDS011;38224;50.950;4.100;2023-06-14T09:30:19;16.58;;;4.68;;
52268;SDS011;38224;50.950;4.100;2023-06-14T09:32:44;8.32;;;4.32;;
52268;SDS011;38224;50.950;4.100;2023-06-14T09:35:10;6.55;;;4.03;;
52268;SDS011;38224;50.950;4.100;2023-06-14T09:37:35;6.10;;;4.13;;
52268;SDS011;38224;50.950;4.100;2023-06-14T09:40:03;7.75;;;3.95;;
52268;SDS011;38224;50.950;4.100;2023-06-14T09:42:28;5.80;;;4.43;;
52268;SDS011;38224;50.950;4.100;2023-06-14T09:44:55;39.08;;;5.90;;
52268;SDS011;38224;50.950;4.100;2023-06-14T09:47:20;9.73;;;4.47;;
52268;SDS011;38224;50.950;4.100;2023-06-14T09:49:47;6.82;;;4.10;;
52268;SDS011;38224;50.950;4.100;2023-06-14T09:52:15;10.18;;;4.40;;
52268;SDS011;38224;50.950;4.100;2023-06-14T09:54:42;6.50;;;4.45;;
52268;SDS011;38224;50.950;4.100;2023-06-14T09:57:21;5.53;;;3.95;;
52268;SDS011;38224;50.950;4.100;2023-06-14T09:59:47;5.22;;;3.95;;
52268;SDS011;38224;50.950;4.100;2023-06-14T10:02:23;9.00;;;4.50;;
52268;SDS011;38224;50.950;4.100;2023-06-14T10:05:11;5.85;;;4.60;;
52268;SDS011;38224;50.950;4.100;2023-06-14T10:07:38;7.95;;;4.07;;
52268;SDS011;38224;50.950;4.100;2023-06-14T10:10:04;10.20;;;4.63;;
52268;SDS011;38224;50.950;4.100;2023-06-14T10:12:30;10.82;;;4.53;;
52268;SDS011;38224;50.950;4.100;2023-06-14T10:14:55;14.95;;;4.70;;
52268;SDS011;38224;50.950;4.100;2023-06-14T10:17:23;7.78;;;4.03;;
52268;SDS011;38224;50.950;4.100;2023-06-14T10:19:54;6.68;;;4.18;;
52268;SDS011;38224;50.950;4.100;2023-06-14T10:22:24;7.22;;;4.20;;
52268;SDS011;38224;50.950;4.100;2023-06-14T10:24:51;6.88;;;3.83;;
52268;SDS011;38224;50.950;4.100;2023-06-14T10:27:16;8.25;;;4.55;;
52268;SDS011;38224;50.950;4.100;2023-06-14T10:32:13;7.70;;;4.63;;
52268;SDS011;38224;50.950;4.100;2023-06-14T10:34:39;9.43;;;4.83;;
52268;SDS011;38224;50.950;4.100;2023-06-14T10:37:05;10.60;;;5.25;;
52268;SDS011;38224;50.950;4.100;2023-06-14T10:39:31;8.68;;;4.93;;
52268;SDS011;38224;50.950;4.100;2023-06-14T10:41:57;7.57;;;4.05;;
52268;SDS011;38224;50.950;4.100;2023-06-14T10:49:16;5.67;;;4.07;;
52268;SDS011;38224;50.950;4.100;2023-06-14T10:51:44;8.77;;;4.20;;
52268;SDS011;38224;50.950;4.100;2023-06-14T10:54:12;11.98;;;4.13;;
52268;SDS011;38224;50.950;4.100;2023-06-14T10:56:47;6.55;;;3.70;;
52268;SDS011;38224;50.950;4.100;2023-06-14T10:59:13;6.28;;;3.22;;
52268;SDS011;38224;50.950;4.100;2023-06-14T11:01:40;7.15;;;4.28;;
52268;SDS011;38224;50.950;4.100;2023-06-14T11:04:10;6.13;;;3.55;;
52268;SDS011;38224;50.950;4.100;2023-06-14T11:06:46;9.95;;;3.60;;
52268;SDS011;38224;50.950;4.100;2023-06-14T11:11:37;10.15;;;3.63;;
52268;SDS011;38224;50.950;4.100;2023-06-14T11:14:03;7.88;;;4.05;;
52268;SDS011;38224;50.950;4.100;2023-06-14T11:16:29;9.55;;;3.90;;
52268;SDS011;38224;50.950;4.100;2023-06-14T11:56:05;5.18;;;3.70;;
52268;SDS011;38224;50.950;4.100;2023-06-14T11:58:30;9.23;;;3.92;;
52268;SDS011;38224;50.950;4.100;2023-06-14T12:00:56;7.60;;;4.07;;
52268;SDS011;38224;50.950;4.100;2023-06-14T12:03:24;7.77;;;3.83;;
52268;SDS011;38224;50.950;4.100;2023-06-14T12:05:50;5.60;;;3.30;;
52268;SDS011;38224;50.950;4.100;2023-06-14T12:08:16;9.48;;;3.58;;
52268;SDS011;38224;50.950;4.100;2023-06-14T12:10:42;5.55;;;3.35;;
52268;SDS011;38224;50.950;4.100;2023-06-14T12:13:10;8.70;;;3.90;;
52268;SDS011;38224;50.950;4.100;2023-06-14T12:15:36;5.05;;;3.85;;
52268;SDS011;38224;50.950;4.100;2023-06-14T12:18:04;5.85;;;3.88;;
52268;SDS011;38224;50.950;4.100;2023-06-14T12:20:31;8.15;;;3.67;;
52268;SDS011;38224;50.950;4.100;2023-06-14T12:22:58;5.28;;;3.55;;
52268;SDS011;38224;50.950;4.100;2023-06-14T12:25:24;5.20;;;3.38;;
52268;SDS011;38224;50.950;4.100;2023-06-14T12:27:52;7.43;;;3.53;;
52268;SDS011;38224;50.950;4.100;2023-06-14T12:30:17;5.07;;;3.70;;
52268;SDS011;38224;50.950;4.100;2023-06-14T12:32:42;7.17;;;3.87;;
52268;SDS011;38224;50.950;4.100;2023-06-14T12:35:09;5.75;;;4.00;;
52268;SDS011;38224;50.950;4.100;2023-06-14T12:37:34;7.63;;;3.40;;
52268;SDS011;38224;50.950;4.100;2023-06-14T12:39:59;9.60;;;4.17;;
52268;SDS011;38224;50.950;4.100;2023-06-14T12:42:24;9.07;;;4.00;;
52268;SDS011;38224;50.950;4.100;2023-06-14T12:44:50;5.68;;;3.80;;
52268;SDS011;38224;50.950;4.100;2023-06-14T12:47:15;6.87;;;3.53;;
52268;SDS011;38224;50.950;4.100;2023-06-14T12:49:41;5.67;;;3.70;;
52268;SDS011;38224;50.950;4.100;2023-06-14T12:52:06;7.22;;;3.78;;
52268;SDS011;38224;50.950;4.100;2023-06-14T12:54:32;6.72;;;4.10;;
52268;SDS011;38224;50.950;4.100;2023-06-14T12:56:57;8.57;;;3.60;;
52268;SDS011;38224;50.950;4.100;2023-06-14T12:59:22;5.75;;;3.42;;
52268;SDS011;38224;50.950;4.100;2023-06-14T13:01:48;5.60;;;3.43;;
52268;SDS011;38224;50.950;4.100;2023-06-14T13:04:15;13.35;;;3.60;;
52268;SDS011;38224;50.950;4.100;2023-06-14T13:06:40;6.30;;;4.20;;
52268;SDS011;38224;50.950;4.100;2023-06-14T13:09:05;6.28;;;3.78;;
52268;SDS011;38224;50.950;4.100;2023-06-14T13:11:31;6.70;;;3.42;;
52268;SDS011;38224;50.950;4.100;2023-06-14T13:13:56;10.93;;;3.67;;
52268;SDS011;38224;50.950;4.100;2023-06-14T13:16:21;8.30;;;3.90;;
52268;SDS011;38224;50.950;4.100;2023-06-14T13:18:47;7.93;;;3.60;;
52268;SDS011;38224;50.950;4.100;2023-06-14T13:21:12;8.93;;;3.57;;
52268;SDS011;38224;50.950;4.100;2023-06-14T13:23:37;14.77;;;4.32;;
52268;SDS011;38224;50.950;4.100;2023-06-14T13:26:02;5.97;;;3.20;;
52268;SDS011;38224;50.950;4.100;2023-06-14T13:28:28;11.90;;;3.60;;
52268;SDS011;38224;50.950;4.100;2023-06-14T13:30:53;6.07;;;3.40;;
52268;SDS011;38224;50.950;4.100;2023-06-14T13:33:20;10.38;;;3.75;;
52268;SDS011;38224;50.950;4.100;2023-06-14T13:35:45;11.23;;;3.50;;
52268;SDS011;38224;50.950;4.100;2023-06-14T13:38:11;10.20;;;3.53;;
52268;SDS011;38224;50.950;4.100;2023-06-14T13:40:36;7.30;;;3.67;;
52268;SDS011;38224;50.950;4.100;2023-06-14T13:43:01;9.87;;;3.57;;
52268;SDS011;38224;50.950;4.100;2023-06-14T13:45:27;10.10;;;3.63;;
52268;SDS011;38224;50.950;4.100;2023-06-14T13:47:52;9.03;;;3.80;;
52268;SDS011;38224;50.950;4.100;2023-06-14T13:50:18;8.27;;;3.35;;
52268;SDS011;38224;50.950;4.100;2023-06-14T13:52:43;7.47;;;3.90;;
52268;SDS011;38224;50.950;4.100;2023-06-14T13:55:09;6.80;;;3.30;;
52268;SDS011;38224;50.950;4.100;2023-06-14T13:57:34;6.20;;;3.78;;
52268;SDS011;38224;50.950;4.100;2023-06-14T14:00:00;5.05;;;3.25;;
52268;SDS011;38224;50.950;4.100;2023-06-14T14:02:29;5.10;;;2.95;;
52268;SDS011;38224;50.950;4.100;2023-06-14T14:04:55;11.73;;;3.60;;
52268;SDS011;38224;50.950;4.100;2023-06-14T14:07:20;4.97;;;3.20;;
52268;SDS011;38224;50.950;4.100;2023-06-14T14:09:45;6.57;;;2.97;;
52268;SDS011;38224;50.950;4.100;2023-06-14T14:12:11;6.13;;;3.45;;
52268;SDS011;38224;50.950;4.100;2023-06-14T14:14:36;6.35;;;3.22;;
52268;SDS011;38224;50.950;4.100;2023-06-14T14:17:02;6.13;;;3.28;;
52268;SDS011;38224;50.950;4.100;2023-06-14T14:19:27;7.95;;;2.97;;
52268;SDS011;38224;50.950;4.100;2023-06-14T14:21:53;5.68;;;3.30;;
52268;SDS011;38224;50.950;4.100;2023-06-14T14:24:18;9.05;;;2.78;;
52268;SDS011;38224;50.950;4.100;2023-06-14T14:26:44;9.85;;;3.20;;
52268;SDS011;38224;50.950;4.100;2023-06-14T14:29:12;7.05;;;3.15;;
52268;SDS011;38224;50.950;4.100;2023-06-14T14:31:38;6.53;;;3.03;;
52268;SDS011;38224;50.950;4.100;2023-06-14T14:34:03;4.75;;;2.40;;
52268;SDS011;38224;50.950;4.100;2023-06-14T14:36:28;8.63;;;3.20;;
52268;SDS011;38224;50.950;4.100;2023-06-14T14:38:53;4.82;;;2.45;;
52268;SDS011;38224;50.950;4.100;2023-06-14T14:41:19;6.50;;;2.72;;
52268;SDS011;38224;50.950;4.100;2023-06-14T14:43:44;3.53;;;2.35;;
52268;SDS011;38224;50.950;4.100;2023-06-14T14:46:09;7.40;;;2.33;;
52268;SDS011;38224;50.950;4.100;2023-06-14T14:48:35;3.35;;;2.05;;
52268;SDS011;38224;50.950;4.100;2023-06-14T14:51:00;6.00;;;2.03;;
52268;SDS011;38224;50.950;4.100;2023-06-14T14:53:25;3.40;;;2.23;;
52268;SDS011;38224;50.950;4.100;2023-06-14T14:55:51;5.95;;;2.35;;
52268;SDS011;38224;50.950;4.100;2023-06-14T14:58:16;5.63;;;1.97;;
52268;SDS011;38224;50.950;4.100;2023-06-14T15:00:47;2.95;;;1.77;;
52268;SDS011;38224;50.950;4.100;2023-06-14T15:03:13;3.33;;;2.20;;
52268;SDS011;38224;50.950;4.100;2023-06-14T15:05:39;2.72;;;1.90;;
52268;SDS011;38224;50.950;4.100;2023-06-14T15:08:04;3.63;;;1.88;;
52268;SDS011;38224;50.950;4.100;2023-06-14T15:10:35;3.75;;;1.65;;
52268;SDS011;38224;50.950;4.100;2023-06-14T15:13:00;3.13;;;1.60;;
52268;SDS011;38224;50.950;4.100;2023-06-14T15:15:26;2.53;;;1.60;;
52268;SDS011;38224;50.950;4.100;2023-06-14T15:17:51;3.10;;;1.90;;
52268;SDS011;38224;50.950;4.100;2023-06-14T15:20:16;11.10;;;1.93;;
52268;SDS011;38224;50.950;4.100;2023-06-14T15:22:41;2.13;;;1.50;;